Wind From: 11-12-2017 04:25 Until: 16:00 warning for: Wind Level: Orange info button

Power and phone distribution networks may be disrupted for relatively long periods., Roofs and chimneys can be damaged. , Tree branches may break. , Vehicles can be deported. , Traffic may be disrupted, particularly on secondary roads in forest areas. Limit your trips. , Limit your speed in highway driving, especially if you drive a vehicle or hitch sensitive to wind. , Do not go for walks in forests or along the coast., In town, be vigilant against possible falling objects., Do not work on roofs and do not touch any electrical line fallen on the ground., Store or secure sensitive objects to wind or likely to be damaged., Always install power generators outside buildings. 


Meteo18 Weather Cam more information Meteo18 Weather Cam


Thunder radar more information blitzortung!


Rain radar more information rain snow radar


Visit our other weather sites:

Template documentation
and downloads

And another site



Weather Underground History page Text

Daily Summary for April 10, 2017 Units:  Metric    English   Both
« Previous Day
Next Day »
Daily Weekly Monthly Yearly Custom
  High: Low: Average:
Temperature: 17.2 °C 8.1 °C 13.1 °C
Dew Point: 11.7 °C 6.6 °C 8.7 °C
Humidity: 91 % 57 % 75 %
Wind Speed: 20.9 km/h 0.0 km/h 4.2 km/h
Wind Gust: 27.4 km/h - -
Wind:- - SSW
Pressure: 1025.6 hPa 1021.9 hPa -
Precipitation: 0.0 mm    
Historical Graphs
 
 
Tabular Data for April 10, 2017
Time Temperature Dew Point Pressure Wind Wind Speed Wind Gust Humidity Rainfall Rate (Hourly)
00:02 14.1 °C 8.1 °C 1022.6 hPa Calm     67 % 0.0 mm
00:07 13.9 °C 8.1 °C 1022.9 hPa Calm     68 % 0.0 mm
00:12 13.9 °C 8.3 °C 1022.6 hPa Calm     69 % 0.0 mm
00:17 13.9 °C 8.3 °C 1022.9 hPa Calm     69 % 0.0 mm
00:22 14.0 °C 8.2 °C 1022.9 hPa Calm     68 % 0.0 mm
00:32 14.4 °C 8.1 °C 1022.6 hPa NNE 3.2 km/h 4.8 km/h 66 % 0.0 mm
00:37 14.8 °C 8.3 °C 1022.6 hPa Calm   4.8 km/h 65 % 0.0 mm
00:42 14.6 °C 8.1 °C 1022.6 hPa Calm   4.8 km/h 65 % 0.0 mm
00:47 14.4 °C 8.1 °C 1022.9 hPa Calm   3.2 km/h 66 % 0.0 mm
00:52 14.2 °C 8.2 °C 1022.6 hPa SSW 1.6 km/h 1.6 km/h 67 % 0.0 mm
00:57 13.7 °C 8.1 °C 1022.9 hPa Calm   3.2 km/h 69 % 0.0 mm
01:02 13.6 °C 8.0 °C 1022.9 hPa Calm   3.2 km/h 69 % 0.0 mm
01:07 13.6 °C 8.0 °C 1022.9 hPa Calm   3.2 km/h 69 % 0.0 mm
01:12 13.3 °C 7.9 °C 1022.9 hPa Calm   1.6 km/h 70 % 0.0 mm
01:17 13.1 °C 8.0 °C 1022.6 hPa Calm     71 % 0.0 mm
01:22 12.9 °C 7.8 °C 1022.6 hPa Calm     71 % 0.0 mm
01:27 12.8 °C 7.9 °C 1022.6 hPa Calm     72 % 0.0 mm
01:37 12.1 °C 7.6 °C 1022.6 hPa Calm     74 % 0.0 mm
01:42 11.8 °C 7.5 °C 1022.9 hPa Calm     75 % 0.0 mm
01:47 11.7 °C 7.6 °C 1022.9 hPa Calm   1.6 km/h 76 % 0.0 mm
01:52 11.7 °C 7.6 °C 1022.9 hPa SSW 1.6 km/h 1.6 km/h 76 % 0.0 mm
01:57 11.8 °C 7.7 °C 1022.6 hPa Calm   1.6 km/h 76 % 0.0 mm
02:02 11.5 °C 7.2 °C 1022.9 hPa Calm   1.6 km/h 75 % 0.0 mm
02:07 11.1 °C 7.2 °C 1022.6 hPa Calm   1.6 km/h 77 % 0.0 mm
02:12 11.1 °C 7.4 °C 1022.6 hPa Calm     78 % 0.0 mm
02:17 10.9 °C 7.2 °C 1022.6 hPa Calm     78 % 0.0 mm
02:32 10.7 °C 7.4 °C 1022.6 hPa Calm     80 % 0.0 mm
02:37 10.6 °C 7.3 °C 1022.6 hPa Calm     80 % 0.0 mm
02:42 10.4 °C 7.3 °C 1022.6 hPa Calm     81 % 0.0 mm
02:47 10.3 °C 7.4 °C 1022.6 hPa Calm     82 % 0.0 mm
02:52 10.2 °C 7.3 °C 1022.6 hPa Calm     82 % 0.0 mm
03:02 10.0 °C 7.2 °C 1022.6 hPa Calm     83 % 0.0 mm
03:07 9.9 °C 7.1 °C 1022.6 hPa Calm     83 % 0.0 mm
03:12 10.1 °C 7.5 °C 1022.2 hPa Calm   1.6 km/h 84 % 0.0 mm
03:17 10.1 °C 7.5 °C 1022.2 hPa Calm   1.6 km/h 84 % 0.0 mm
03:22 10.2 °C 7.6 °C 1022.2 hPa Calm   1.6 km/h 84 % 0.0 mm
03:27 10.2 °C 7.4 °C 1022.2 hPa Calm     83 % 0.0 mm
03:32 10.1 °C 7.3 °C 1022.2 hPa Calm     83 % 0.0 mm
03:37 9.9 °C 7.3 °C 1022.2 hPa Calm     84 % 0.0 mm
03:42 9.9 °C 7.5 °C 1022.2 hPa Calm     85 % 0.0 mm
03:47 9.9 °C 7.5 °C 1022.2 hPa Calm   1.6 km/h 85 % 0.0 mm
03:52 9.9 °C 7.3 °C 1022.2 hPa Calm   1.6 km/h 84 % 0.0 mm
03:57 9.9 °C 7.5 °C 1022.2 hPa Calm   1.6 km/h 85 % 0.0 mm
04:02 9.9 °C 7.3 °C 1022.2 hPa Calm     84 % 0.0 mm
04:07 9.8 °C 7.2 °C 1022.2 hPa Calm     84 % 0.0 mm
04:12 9.6 °C 7.0 °C 1022.2 hPa Calm     84 % 0.0 mm
04:17 9.4 °C 7.0 °C 1022.2 hPa Calm     85 % 0.0 mm
04:22 9.3 °C 7.1 °C 1022.2 hPa Calm     86 % 0.0 mm
04:27 9.6 °C 7.5 °C 1022.2 hPa Calm     87 % 0.0 mm
04:32 9.8 °C 7.4 °C 1021.9 hPa Calm     85 % 0.0 mm
04:37 9.7 °C 7.3 °C 1021.9 hPa Calm     85 % 0.0 mm
04:42 9.6 °C 7.2 °C 1021.9 hPa Calm   1.6 km/h 85 % 0.0 mm
04:52 9.5 °C 7.3 °C 1021.9 hPa Calm   1.6 km/h 86 % 0.0 mm
04:57 9.3 °C 7.1 °C 1021.9 hPa Calm   1.6 km/h 86 % 0.0 mm
05:02 9.3 °C 7.2 °C 1021.9 hPa Calm   1.6 km/h 87 % 0.0 mm
05:07 9.3 °C 7.2 °C 1021.9 hPa Calm     87 % 0.0 mm
05:12 9.3 °C 7.2 °C 1021.9 hPa Calm     87 % 0.0 mm
05:17 9.2 °C 7.1 °C 1021.9 hPa Calm     87 % 0.0 mm
05:32 8.8 °C 7.1 °C 1021.9 hPa Calm   1.6 km/h 89 % 0.0 mm
05:42 9.2 °C 7.5 °C 1021.9 hPa Calm     89 % 0.0 mm
05:47 9.1 °C 7.2 °C 1021.9 hPa Calm     88 % 0.0 mm
05:52 9.1 °C 7.2 °C 1021.9 hPa Calm     88 % 0.0 mm
05:57 9.0 °C 7.1 °C 1021.9 hPa Calm     88 % 0.0 mm
06:02 8.9 °C 7.2 °C 1021.9 hPa Calm     89 % 0.0 mm
06:07 8.8 °C 7.1 °C 1021.9 hPa Calm     89 % 0.0 mm
06:12 8.8 °C 7.1 °C 1021.9 hPa Calm     89 % 0.0 mm
06:17 8.7 °C 7.0 °C 1021.9 hPa Calm   1.6 km/h 89 % 0.0 mm
06:22 8.8 °C 7.2 °C 1021.9 hPa SE 3.2 km/h 3.2 km/h 90 % 0.0 mm
06:27 8.8 °C 7.2 °C 1021.9 hPa Calm   1.6 km/h 90 % 0.0 mm
06:32 8.7 °C 7.0 °C 1021.9 hPa Calm   3.2 km/h 89 % 0.0 mm
06:42 8.4 °C 6.7 °C 1021.9 hPa Calm   1.6 km/h 89 % 0.0 mm
06:47 8.4 °C 6.9 °C 1022.2 hPa Calm   1.6 km/h 90 % 0.0 mm
06:52 8.2 °C 6.7 °C 1022.2 hPa Calm   1.6 km/h 90 % 0.0 mm
06:57 8.1 °C 6.6 °C 1022.2 hPa Calm   1.6 km/h 90 % 0.0 mm
07:02 8.1 °C 6.6 °C 1022.2 hPa Calm   1.6 km/h 90 % 0.0 mm
07:12 8.2 °C 6.8 °C 1022.2 hPa Calm     91 % 0.0 mm
07:22 8.2 °C 6.8 °C 1022.2 hPa SSW 1.6 km/h 1.6 km/h 91 % 0.0 mm
07:32 8.4 °C 7.0 °C 1022.6 hPa SW 1.6 km/h 3.2 km/h 91 % 0.0 mm
07:37 8.7 °C 7.3 °C 1022.6 hPa Calm   3.2 km/h 91 % 0.0 mm
07:42 8.9 °C 7.3 °C 1022.6 hPa Calm   3.2 km/h 90 % 0.0 mm
07:47 9.1 °C 7.4 °C 1022.6 hPa ENE 1.6 km/h 3.2 km/h 89 % 0.0 mm
07:52 8.7 °C 6.8 °C 1022.6 hPa NE 1.6 km/h 3.2 km/h 88 % 0.0 mm
07:57 8.7 °C 7.0 °C 1022.9 hPa NE 3.2 km/h 6.4 km/h 89 % 0.0 mm
08:02 8.6 °C 6.9 °C 1022.6 hPa ENE 1.6 km/h 6.4 km/h 89 % 0.0 mm
08:12 8.9 °C 7.2 °C 1022.9 hPa NNE 4.8 km/h 4.8 km/h 89 % 0.0 mm
08:17 9.1 °C 7.4 °C 1022.9 hPa NNE 3.2 km/h 8.0 km/h 89 % 0.0 mm
08:22 9.4 °C 7.7 °C 1022.9 hPa Calm   8.0 km/h 89 % 0.0 mm
08:27 9.8 °C 7.9 °C 1022.9 hPa Calm   8.0 km/h 88 % 0.0 mm
08:32 10.1 °C 8.0 °C 1023.2 hPa Calm   8.0 km/h 87 % 0.0 mm
08:37 10.4 °C 8.3 °C 1022.9 hPa North 1.6 km/h 1.6 km/h 87 % 0.0 mm
08:42 10.7 °C 8.6 °C 1023.2 hPa North 1.6 km/h 1.6 km/h 87 % 0.0 mm
08:52 11.3 °C 9.0 °C 1023.2 hPa East 1.6 km/h 3.2 km/h 86 % 0.0 mm
08:57 11.4 °C 9.0 °C 1022.9 hPa Calm   3.2 km/h 85 % 0.0 mm
09:02 12.1 °C 9.5 °C 1023.2 hPa Calm   3.2 km/h 84 % 0.0 mm
09:07 12.4 °C 9.4 °C 1023.2 hPa Calm   3.2 km/h 82 % 0.0 mm
09:12 12.6 °C 9.8 °C 1023.2 hPa Calm   3.2 km/h 83 % 0.0 mm
09:17 12.9 °C 10.3 °C 1023.2 hPa Calm   3.2 km/h 84 % 0.0 mm
09:22 13.3 °C 10.3 °C 1023.2 hPa Calm   3.2 km/h 82 % 0.0 mm
09:27 13.9 °C 10.5 °C 1023.2 hPa Calm   1.6 km/h 80 % 0.0 mm
09:32 13.8 °C 10.0 °C 1023.2 hPa Calm   1.6 km/h 78 % 0.0 mm
09:37 13.9 °C 10.1 °C 1023.2 hPa Calm   3.2 km/h 78 % 0.0 mm
09:42 14.2 °C 10.4 °C 1023.2 hPa Calm   3.2 km/h 78 % 0.0 mm
09:47 14.4 °C 10.2 °C 1023.2 hPa ENE 3.2 km/h 3.2 km/h 76 % 0.0 mm
09:52 14.3 °C 10.1 °C 1023.2 hPa Calm   3.2 km/h 76 % 0.0 mm
09:57 14.5 °C 10.3 °C 1023.2 hPa SE 1.6 km/h 4.8 km/h 76 % 0.0 mm
10:07 15.4 °C 10.8 °C 1023.6 hPa Calm   4.8 km/h 74 % 0.0 mm
10:12 15.7 °C 10.7 °C 1023.6 hPa Calm   1.6 km/h 72 % 0.0 mm
10:17 15.6 °C 10.6 °C 1023.6 hPa Calm   3.2 km/h 72 % 0.0 mm
10:22 15.6 °C 10.1 °C 1023.6 hPa NNE 3.2 km/h 3.2 km/h 70 % 0.0 mm
10:32 16.1 °C 10.8 °C 1023.6 hPa NNE 1.6 km/h 6.4 km/h 71 % 0.0 mm
10:37 16.1 °C 10.4 °C 1023.6 hPa North 3.2 km/h 6.4 km/h 69 % 0.0 mm
10:42 15.9 °C 10.4 °C 1023.6 hPa NNE 6.4 km/h 9.7 km/h 70 % 0.0 mm
10:47 16.0 °C 11.0 °C 1023.6 hPa NW 3.2 km/h 9.7 km/h 72 % 0.0 mm
10:52 16.1 °C 10.8 °C 1023.9 hPa NNW 3.2 km/h 9.7 km/h 71 % 0.0 mm
10:57 16.1 °C 10.8 °C 1023.9 hPa NNE 6.4 km/h 9.7 km/h 71 % 0.0 mm
11:02 16.0 °C 10.7 °C 1023.9 hPa Calm   9.7 km/h 71 % 0.0 mm
11:07 16.2 °C 11.1 °C 1023.9 hPa NW 6.4 km/h 9.7 km/h 72 % 0.0 mm
11:12 16.3 °C 11.5 °C 1023.9 hPa North 6.4 km/h 12.9 km/h 73 % 0.0 mm
11:17 16.3 °C 11.0 °C 1023.9 hPa NNW 6.4 km/h 12.9 km/h 71 % 0.0 mm
11:22 16.3 °C 11.2 °C 1024.3 hPa WNW 4.8 km/h 11.3 km/h 72 % 0.0 mm
11:27 16.3 °C 11.0 °C 1024.3 hPa NNE 6.4 km/h 11.3 km/h 71 % 0.0 mm
11:32 16.4 °C 11.3 °C 1024.3 hPa WNW 6.4 km/h 11.3 km/h 72 % 0.0 mm
11:37 16.3 °C 11.7 °C 1024.3 hPa NW 4.8 km/h 14.5 km/h 74 % 0.0 mm
11:42 16.4 °C 11.1 °C 1024.3 hPa North 12.9 km/h 14.5 km/h 71 % 0.0 mm
11:47 16.3 °C 11.2 °C 1024.3 hPa North 11.3 km/h 17.7 km/h 72 % 0.0 mm
11:52 16.4 °C 11.1 °C 1024.3 hPa NNW 9.7 km/h 17.7 km/h 71 % 0.0 mm
11:57 16.3 °C 10.8 °C 1024.3 hPa NNW 6.4 km/h 17.7 km/h 70 % 0.0 mm
12:02 16.4 °C 10.5 °C 1024.3 hPa NNE 9.7 km/h 16.1 km/h 68 % 0.0 mm
12:07 16.4 °C 10.9 °C 1024.3 hPa NNE 6.4 km/h 17.7 km/h 70 % 0.0 mm
12:12 16.5 °C 11.0 °C 1024.3 hPa NW 6.4 km/h 17.7 km/h 70 % 0.0 mm
12:17 16.4 °C 11.3 °C 1024.3 hPa NNW 12.9 km/h 17.7 km/h 72 % 0.0 mm
12:22 16.2 °C 10.5 °C 1024.3 hPa NW 6.4 km/h 17.7 km/h 69 % 0.0 mm
12:27 16.2 °C 11.4 °C 1024.3 hPa NNW 6.4 km/h 17.7 km/h 73 % 0.0 mm
12:32 16.3 °C 11.5 °C 1024.3 hPa North 6.4 km/h 17.7 km/h 73 % 0.0 mm
12:37 16.2 °C 11.4 °C 1024.3 hPa NE 8.0 km/h 14.5 km/h 73 % 0.0 mm
12:42 15.7 °C 11.3 °C 1024.3 hPa NNW 9.7 km/h 19.3 km/h 75 % 0.0 mm
12:47 15.5 °C 11.1 °C 1024.3 hPa NNE 9.7 km/h 19.3 km/h 75 % 0.0 mm
12:52 15.2 °C 10.8 °C 1024.3 hPa NNW 8.0 km/h 19.3 km/h 75 % 0.0 mm
12:57 15.2 °C 10.8 °C 1024.3 hPa NNW 9.7 km/h 17.7 km/h 75 % 0.0 mm
13:02 14.9 °C 10.7 °C 1024.3 hPa WNW 9.7 km/h 16.1 km/h 76 % 0.0 mm
13:07 14.7 °C 10.9 °C 1024.3 hPa NNW 6.4 km/h 19.3 km/h 78 % 0.0 mm
13:12 14.4 °C 10.4 °C 1024.6 hPa North 20.9 km/h 20.9 km/h 77 % 0.0 mm
13:17 14.4 °C 10.6 °C 1024.6 hPa NW 6.4 km/h 22.5 km/h 78 % 0.0 mm
13:22 14.2 °C 10.4 °C 1024.6 hPa NW 8.0 km/h 22.5 km/h 78 % 0.0 mm
13:27 14.1 °C 10.3 °C 1024.6 hPa NNW 6.4 km/h 22.5 km/h 78 % 0.0 mm
13:32 14.4 °C 10.8 °C 1024.3 hPa NW 9.7 km/h 19.3 km/h 79 % 0.0 mm
13:37 14.4 °C 10.6 °C 1024.6 hPa NNE 6.4 km/h 17.7 km/h 78 % 0.0 mm
13:42 14.2 °C 10.2 °C 1024.6 hPa North 6.4 km/h 19.3 km/h 77 % 0.0 mm
13:47 14.2 °C 10.2 °C 1024.6 hPa NNW 9.7 km/h 19.3 km/h 77 % 0.0 mm
13:52 14.4 °C 10.6 °C 1024.6 hPa NE 9.7 km/h 17.7 km/h 78 % 0.0 mm
13:57 14.5 °C 10.5 °C 1024.6 hPa NNE 6.4 km/h 17.7 km/h 77 % 0.0 mm
14:02 14.5 °C 10.3 °C 1024.6 hPa NNW 6.4 km/h 19.3 km/h 76 % 0.0 mm
14:07 14.9 °C 10.9 °C 1024.6 hPa WNW 4.8 km/h 19.3 km/h 77 % 0.0 mm
14:12 14.9 °C 10.7 °C 1024.3 hPa NE 8.0 km/h 16.1 km/h 76 % 0.0 mm
14:17 15.1 °C 10.9 °C 1024.3 hPa WNW 3.2 km/h 16.1 km/h 76 % 0.0 mm
14:22 15.2 °C 10.6 °C 1024.3 hPa NNW 4.8 km/h 16.1 km/h 74 % 0.0 mm
14:27 15.4 °C 10.8 °C 1024.3 hPa NNW 6.4 km/h 14.5 km/h 74 % 0.0 mm
14:32 15.6 °C 11.0 °C 1024.3 hPa NW 8.0 km/h 14.5 km/h 74 % 0.0 mm
14:37 15.6 °C 10.6 °C 1024.6 hPa NNW 11.3 km/h 19.3 km/h 72 % 0.0 mm
14:42 15.7 °C 11.1 °C 1024.3 hPa NW 8.0 km/h 19.3 km/h 74 % 0.0 mm
14:52 15.7 °C 11.1 °C 1024.3 hPa North 8.0 km/h 16.1 km/h 74 % 0.0 mm
14:57 15.9 °C 10.9 °C 1024.3 hPa NE 3.2 km/h 16.1 km/h 72 % 0.0 mm
15:02 16.1 °C 11.1 °C 1024.3 hPa WNW 11.3 km/h 17.7 km/h 72 % 0.0 mm
15:07 16.1 °C 10.8 °C 1024.3 hPa NNE 6.4 km/h 17.7 km/h 71 % 0.0 mm
15:12 16.2 °C 11.4 °C 1024.3 hPa NNW 12.9 km/h 17.7 km/h 73 % 0.0 mm
15:17 16.3 °C 11.0 °C 1024.3 hPa NNW 6.4 km/h 19.3 km/h 71 % 0.0 mm
15:22 16.6 °C 10.7 °C 1024.3 hPa NW 9.7 km/h 19.3 km/h 68 % 0.0 mm
15:27 16.5 °C 10.6 °C 1024.3 hPa NNW 8.0 km/h 19.3 km/h 68 % 0.0 mm
15:32 16.7 °C 11.0 °C 1024.3 hPa West 8.0 km/h 17.7 km/h 69 % 0.0 mm
15:37 16.8 °C 10.0 °C 1024.3 hPa NW 17.7 km/h 17.7 km/h 64 % 0.0 mm
15:42 16.8 °C 9.7 °C 1024.3 hPa North 6.4 km/h 17.7 km/h 63 % 0.0 mm
15:47 16.8 °C 9.7 °C 1024.3 hPa NNW 11.3 km/h 19.3 km/h 63 % 0.0 mm
15:52 16.8 °C 9.7 °C 1023.9 hPa North 4.8 km/h 20.9 km/h 63 % 0.0 mm
15:57 16.9 °C 9.6 °C 1023.9 hPa NNE 6.4 km/h 20.9 km/h 62 % 0.0 mm
16:02 16.9 °C 9.6 °C 1023.9 hPa NNW 4.8 km/h 20.9 km/h 62 % 0.0 mm
16:07 16.9 °C 9.6 °C 1023.9 hPa North 9.7 km/h 27.4 km/h 62 % 0.0 mm
16:12 16.9 °C 9.1 °C 1023.9 hPa WNW 16.1 km/h 27.4 km/h 60 % 0.0 mm
16:17 16.9 °C 9.3 °C 1023.9 hPa NNE 11.3 km/h 20.9 km/h 61 % 0.0 mm
16:22 17.0 °C 8.7 °C 1023.9 hPa North 8.0 km/h 20.9 km/h 58 % 0.0 mm
16:32 16.8 °C 8.7 °C 1023.9 hPa NNW 9.7 km/h 20.9 km/h 59 % 0.0 mm
16:37 16.8 °C 8.7 °C 1023.6 hPa NNW 14.5 km/h 20.9 km/h 59 % 0.0 mm
16:42 16.9 °C 9.1 °C 1023.6 hPa NW 11.3 km/h 20.9 km/h 60 % 0.0 mm
16:47 16.9 °C 8.3 °C 1023.6 hPa NNW 11.3 km/h 20.9 km/h 57 % 0.0 mm
16:52 16.9 °C 8.3 °C 1023.6 hPa North 6.4 km/h 20.9 km/h 57 % 0.0 mm
16:57 16.9 °C 8.3 °C 1023.6 hPa NNW 6.4 km/h 20.9 km/h 57 % 0.0 mm
17:02 17.1 °C 8.8 °C 1023.6 hPa NNE 8.0 km/h 20.9 km/h 58 % 0.0 mm
17:12 17.1 °C 9.0 °C 1023.6 hPa NW 12.9 km/h 20.9 km/h 59 % 0.0 mm
17:17 16.9 °C 8.3 °C 1023.2 hPa NW 8.0 km/h 27.4 km/h 57 % 0.0 mm
17:27 17.1 °C 9.5 °C 1023.6 hPa NW 8.0 km/h 24.1 km/h 61 % 0.0 mm
17:32 17.2 °C 9.6 °C 1023.6 hPa NNE 6.4 km/h 22.5 km/h 61 % 0.0 mm
17:37 17.1 °C 9.3 °C 1023.6 hPa NNW 12.9 km/h 22.5 km/h 60 % 0.0 mm
17:42 16.9 °C 9.3 °C 1023.6 hPa NNE 9.7 km/h 19.3 km/h 61 % 0.0 mm
17:52 16.8 °C 9.2 °C 1023.6 hPa North 14.5 km/h 19.3 km/h 61 % 0.0 mm
17:57 16.7 °C 9.4 °C 1023.6 hPa NNW 9.7 km/h 17.7 km/h 62 % 0.0 mm
18:02 16.4 °C 8.9 °C 1023.6 hPa NNW 19.3 km/h 20.9 km/h 61 % 0.0 mm
18:12 16.2 °C 8.7 °C 1023.6 hPa NNW 8.0 km/h 27.4 km/h 61 % 0.0 mm
18:17 16.2 °C 8.7 °C 1023.6 hPa NNE 17.7 km/h 27.4 km/h 61 % 0.0 mm
18:22 16.2 °C 8.7 °C 1023.6 hPa North 6.4 km/h 27.4 km/h 61 % 0.0 mm
18:27 16.2 °C 8.7 °C 1023.6 hPa NW 9.7 km/h 24.1 km/h 61 % 0.0 mm
18:32 16.2 °C 8.9 °C 1023.6 hPa NW 16.1 km/h 24.1 km/h 62 % 0.0 mm
18:37 16.2 °C 8.7 °C 1023.6 hPa WNW 9.7 km/h 20.9 km/h 61 % 0.0 mm
18:42 16.0 °C 8.7 °C 1023.6 hPa NNE 6.4 km/h 20.9 km/h 62 % 0.0 mm
18:47 16.1 °C 8.8 °C 1023.6 hPa NNW 9.7 km/h 22.5 km/h 62 % 0.0 mm
18:52 15.9 °C 8.4 °C 1023.6 hPa North 16.1 km/h 22.5 km/h 61 % 0.0 mm
18:57 15.6 °C 8.1 °C 1023.9 hPa NW 3.2 km/h 22.5 km/h 61 % 0.0 mm
19:02 15.5 °C 8.5 °C 1023.9 hPa North 14.5 km/h 24.1 km/h 63 % 0.0 mm
19:12 15.4 °C 8.2 °C 1023.9 hPa North 11.3 km/h 17.7 km/h 62 % 0.0 mm
19:17 15.4 °C 8.4 °C 1023.9 hPa WNW 8.0 km/h 22.5 km/h 63 % 0.0 mm
19:22 15.2 °C 8.2 °C 1023.9 hPa NNW 12.9 km/h 22.5 km/h 63 % 0.0 mm
19:27 15.1 °C 8.3 °C 1023.9 hPa NW 6.4 km/h 19.3 km/h 64 % 0.0 mm
19:32 14.9 °C 8.1 °C 1023.9 hPa NW 14.5 km/h 20.9 km/h 64 % 0.0 mm
19:37 14.8 °C 8.1 °C 1023.9 hPa North 11.3 km/h 20.9 km/h 64 % 0.0 mm
19:47 14.6 °C 8.1 °C 1023.9 hPa NNW 6.4 km/h 20.9 km/h 65 % 0.0 mm
19:52 14.6 °C 8.3 °C 1023.9 hPa NE 16.1 km/h 19.3 km/h 66 % 0.0 mm
19:57 14.6 °C 8.3 °C 1023.9 hPa North 6.4 km/h 19.3 km/h 66 % 0.0 mm
20:02 14.6 °C 8.1 °C 1023.9 hPa NNE 12.9 km/h 19.3 km/h 65 % 0.0 mm
20:12 14.4 °C 8.1 °C 1023.9 hPa NNW 6.4 km/h 17.7 km/h 66 % 0.0 mm
20:17 14.2 °C 7.9 °C 1024.3 hPa NNE 11.3 km/h 14.5 km/h 66 % 0.0 mm
20:22 14.1 °C 8.1 °C 1024.3 hPa NNW 4.8 km/h 16.1 km/h 67 % 0.0 mm
20:32 13.8 °C 8.0 °C 1024.3 hPa North 8.0 km/h 16.1 km/h 68 % 0.0 mm
20:37 13.6 °C 7.8 °C 1024.3 hPa North 9.7 km/h 16.1 km/h 68 % 0.0 mm
20:42 13.5 °C 7.9 °C 1024.3 hPa North 9.7 km/h 14.5 km/h 69 % 0.0 mm
20:47 13.3 °C 7.7 °C 1024.3 hPa North 4.8 km/h 14.5 km/h 69 % 0.0 mm
20:52 13.3 °C 7.9 °C 1024.3 hPa NNW 4.8 km/h 14.5 km/h 70 % 0.0 mm
20:57 13.2 °C 8.1 °C 1024.3 hPa NNE 1.6 km/h 14.5 km/h 71 % 0.0 mm
21:02 13.0 °C 8.1 °C 1024.3 hPa NE 4.8 km/h 11.3 km/h 72 % 0.0 mm
21:12 12.6 °C 7.9 °C 1024.6 hPa NE 3.2 km/h 8.0 km/h 73 % 0.0 mm
21:17 12.4 °C 7.9 °C 1024.6 hPa Calm   6.4 km/h 74 % 0.0 mm
21:22 12.3 °C 8.0 °C 1024.6 hPa North 1.6 km/h 6.4 km/h 75 % 0.0 mm
21:27 12.2 °C 7.9 °C 1024.6 hPa NNW 3.2 km/h 6.4 km/h 75 % 0.0 mm
21:37 12.1 °C 8.0 °C 1024.9 hPa North 1.6 km/h 8.0 km/h 76 % 0.0 mm
21:47 11.8 °C 7.7 °C 1024.9 hPa NNW 1.6 km/h 8.0 km/h 76 % 0.0 mm
21:52 11.7 °C 7.8 °C 1024.9 hPa North 1.6 km/h 6.4 km/h 77 % 0.0 mm
22:02 11.4 °C 7.7 °C 1024.9 hPa NNW 1.6 km/h 4.8 km/h 78 % 0.0 mm
22:07 11.4 °C 7.7 °C 1025.3 hPa Calm   3.2 km/h 78 % 0.0 mm
22:12 11.3 °C 7.6 °C 1025.3 hPa Calm   3.2 km/h 78 % 0.0 mm
22:17 11.1 °C 7.6 °C 1025.3 hPa Calm   3.2 km/h 79 % 0.0 mm
22:22 10.9 °C 7.4 °C 1025.3 hPa Calm   3.2 km/h 79 % 0.0 mm
22:27 10.8 °C 7.5 °C 1025.3 hPa Calm   1.6 km/h 80 % 0.0 mm
22:32 10.8 °C 7.5 °C 1025.3 hPa Calm   1.6 km/h 80 % 0.0 mm
22:37 10.8 °C 7.5 °C 1025.3 hPa Calm   1.6 km/h 80 % 0.0 mm
22:42 10.7 °C 7.4 °C 1025.3 hPa Calm   1.6 km/h 80 % 0.0 mm
22:52 10.4 °C 7.1 °C 1025.6 hPa WNW 1.6 km/h 1.6 km/h 80 % 0.0 mm
22:57 10.4 °C 7.1 °C 1025.6 hPa NW 1.6 km/h 3.2 km/h 80 % 0.0 mm
23:02 10.3 °C 7.0 °C 1025.6 hPa Calm   3.2 km/h 80 % 0.0 mm
23:07 10.3 °C 7.0 °C 1025.6 hPa Calm   3.2 km/h 80 % 0.0 mm
23:12 10.2 °C 7.1 °C 1025.6 hPa NW 1.6 km/h 3.2 km/h 81 % 0.0 mm
23:17 10.2 °C 7.1 °C 1025.6 hPa NW 1.6 km/h 3.2 km/h 81 % 0.0 mm
23:22 10.3 °C 7.2 °C 1025.6 hPa NW 1.6 km/h 3.2 km/h 81 % 0.0 mm
23:27 10.3 °C 7.2 °C 1025.6 hPa Calm   3.2 km/h 81 % 0.0 mm
23:32 10.3 °C 7.2 °C 1025.6 hPa Calm   3.2 km/h 81 % 0.0 mm
23:37 10.2 °C 7.1 °C 1025.6 hPa NW 1.6 km/h 3.2 km/h 81 % 0.0 mm
23:42 10.2 °C 7.1 °C 1025.6 hPa Calm   3.2 km/h 81 % 0.0 mm
23:47 10.3 °C 7.2 °C 1025.6 hPa NW 1.6 km/h 3.2 km/h 81 % 0.0 mm
23:52 10.3 °C 7.2 °C 1025.6 hPa WNW 3.2 km/h 4.8 km/h 81 % 0.0 mm
23:57 10.2 °C 7.1 °C 1025.6 hPa WNW 1.6 km/h 4.8 km/h 81 % 0.0 mm
Meteo18
Compliments of Weather Underground - 4 mb

Script developed by  Jim McMurry - jmcmurry@mwt.net Adapted for the template by  Wim van der Kuil - Leuven-Template.eu

You find our weather info also at:

European Weather Network

Weather Underground

Equipment we use:

Weather-station
Davis Vue

Weather-program
Meteohub

Weather-server
Raspberry PI 2 B+

Provider
1 and 1

Davis Vue

Meteohub

Raspberry PI 2 B+

1 and 1